sensor_id;sensor_type;location;lat;lon;timestamp;P1;durP1;ratioP1;P2;durP2;ratioP2
53666;SDS011;39568;51.026;5.468;2024-01-10T00:02:00;18.58;;;8.95;;
53666;SDS011;39568;51.026;5.468;2024-01-10T00:04:28;20.77;;;9.10;;
53666;SDS011;39568;51.026;5.468;2024-01-10T00:06:54;25.30;;;10.07;;
53666;SDS011;39568;51.026;5.468;2024-01-10T00:09:21;15.70;;;9.73;;
53666;SDS011;39568;51.026;5.468;2024-01-10T00:11:47;22.75;;;9.85;;
53666;SDS011;39568;51.026;5.468;2024-01-10T00:14:15;21.73;;;9.68;;
53666;SDS011;39568;51.026;5.468;2024-01-10T00:16:42;21.85;;;11.43;;
53666;SDS011;39568;51.026;5.468;2024-01-10T00:19:08;25.17;;;10.65;;
53666;SDS011;39568;51.026;5.468;2024-01-10T00:21:35;19.08;;;10.05;;
53666;SDS011;39568;51.026;5.468;2024-01-10T00:24:01;19.30;;;9.55;;
53666;SDS011;39568;51.026;5.468;2024-01-10T00:26:28;21.48;;;9.82;;
53666;SDS011;39568;51.026;5.468;2024-01-10T00:28:54;24.75;;;11.10;;
53666;SDS011;39568;51.026;5.468;2024-01-10T00:31:22;18.77;;;11.15;;
53666;SDS011;39568;51.026;5.468;2024-01-10T00:33:48;16.10;;;9.68;;
53666;SDS011;39568;51.026;5.468;2024-01-10T00:36:15;18.27;;;9.63;;
53666;SDS011;39568;51.026;5.468;2024-01-10T00:38:43;21.40;;;10.23;;
53666;SDS011;39568;51.026;5.468;2024-01-10T00:41:09;23.25;;;10.90;;
53666;SDS011;39568;51.026;5.468;2024-01-10T00:43:37;24.20;;;9.75;;
53666;SDS011;39568;51.026;5.468;2024-01-10T00:46:03;25.35;;;9.75;;
53666;SDS011;39568;51.026;5.468;2024-01-10T00:48:31;23.15;;;10.93;;
53666;SDS011;39568;51.026;5.468;2024-01-10T00:50:58;19.85;;;10.13;;
53666;SDS011;39568;51.026;5.468;2024-01-10T00:53:25;25.42;;;9.95;;
53666;SDS011;39568;51.026;5.468;2024-01-10T00:55:51;21.20;;;10.25;;
53666;SDS011;39568;51.026;5.468;2024-01-10T00:58:18;20.92;;;9.60;;
53666;SDS011;39568;51.026;5.468;2024-01-10T01:00:44;19.27;;;10.25;;
53666;SDS011;39568;51.026;5.468;2024-01-10T01:03:11;22.33;;;10.48;;
53666;SDS011;39568;51.026;5.468;2024-01-10T01:05:39;24.10;;;12.10;;
53666;SDS011;39568;51.026;5.468;2024-01-10T01:08:06;27.27;;;12.45;;
53666;SDS011;39568;51.026;5.468;2024-01-10T01:10:33;24.98;;;9.40;;
53666;SDS011;39568;51.026;5.468;2024-01-10T01:12:59;19.52;;;9.93;;
53666;SDS011;39568;51.026;5.468;2024-01-10T01:15:26;23.52;;;9.35;;
53666;SDS011;39568;51.026;5.468;2024-01-10T01:17:52;19.00;;;9.88;;
53666;SDS011;39568;51.026;5.468;2024-01-10T01:20:19;22.10;;;10.73;;
53666;SDS011;39568;51.026;5.468;2024-01-10T01:22:46;15.63;;;8.52;;
53666;SDS011;39568;51.026;5.468;2024-01-10T01:25:13;15.95;;;9.80;;
53666;SDS011;39568;51.026;5.468;2024-01-10T01:27:39;20.13;;;9.90;;
53666;SDS011;39568;51.026;5.468;2024-01-10T01:30:06;20.80;;;10.50;;
53666;SDS011;39568;51.026;5.468;2024-01-10T01:32:33;22.50;;;10.18;;
53666;SDS011;39568;51.026;5.468;2024-01-10T01:34:59;17.50;;;9.55;;
53666;SDS011;39568;51.026;5.468;2024-01-10T01:37:26;18.65;;;10.00;;
53666;SDS011;39568;51.026;5.468;2024-01-10T01:39:54;25.25;;;10.30;;
53666;SDS011;39568;51.026;5.468;2024-01-10T01:42:20;19.35;;;9.48;;
53666;SDS011;39568;51.026;5.468;2024-01-10T01:44:47;16.90;;;8.55;;
53666;SDS011;39568;51.026;5.468;2024-01-10T01:47:13;16.35;;;8.77;;
53666;SDS011;39568;51.026;5.468;2024-01-10T01:49:39;27.20;;;9.70;;
53666;SDS011;39568;51.026;5.468;2024-01-10T01:52:07;19.35;;;10.35;;
53666;SDS011;39568;51.026;5.468;2024-01-10T01:54:34;25.50;;;10.38;;
53666;SDS011;39568;51.026;5.468;2024-01-10T01:57:02;22.48;;;11.13;;
53666;SDS011;39568;51.026;5.468;2024-01-10T01:59:29;29.80;;;10.43;;
53666;SDS011;39568;51.026;5.468;2024-01-10T02:01:55;18.02;;;9.68;;
53666;SDS011;39568;51.026;5.468;2024-01-10T02:04:22;18.52;;;11.35;;
53666;SDS011;39568;51.026;5.468;2024-01-10T02:06:49;24.17;;;9.48;;
53666;SDS011;39568;51.026;5.468;2024-01-10T02:09:15;21.60;;;10.40;;
53666;SDS011;39568;51.026;5.468;2024-01-10T02:11:42;17.95;;;9.65;;
53666;SDS011;39568;51.026;5.468;2024-01-10T02:14:10;26.05;;;10.27;;
53666;SDS011;39568;51.026;5.468;2024-01-10T02:16:37;23.20;;;10.38;;
53666;SDS011;39568;51.026;5.468;2024-01-10T02:19:16;16.52;;;8.90;;
53666;SDS011;39568;51.026;5.468;2024-01-10T02:21:43;18.10;;;9.63;;
53666;SDS011;39568;51.026;5.468;2024-01-10T02:24:09;20.92;;;9.30;;
53666;SDS011;39568;51.026;5.468;2024-01-10T02:26:37;19.10;;;10.88;;
53666;SDS011;39568;51.026;5.468;2024-01-10T02:29:04;21.10;;;9.55;;
53666;SDS011;39568;51.026;5.468;2024-01-10T02:31:31;19.33;;;10.32;;
53666;SDS011;39568;51.026;5.468;2024-01-10T02:33:57;17.25;;;9.98;;
53666;SDS011;39568;51.026;5.468;2024-01-10T02:36:24;25.15;;;9.85;;
53666;SDS011;39568;51.026;5.468;2024-01-10T02:38:50;18.95;;;9.77;;
53666;SDS011;39568;51.026;5.468;2024-01-10T02:41:17;20.20;;;10.57;;
53666;SDS011;39568;51.026;5.468;2024-01-10T02:43:45;16.08;;;8.93;;
53666;SDS011;39568;51.026;5.468;2024-01-10T02:46:11;24.15;;;10.07;;
53666;SDS011;39568;51.026;5.468;2024-01-10T02:48:38;29.33;;;12.63;;
53666;SDS011;39568;51.026;5.468;2024-01-10T02:51:04;52.80;;;19.80;;
53666;SDS011;39568;51.026;5.468;2024-01-10T02:53:31;65.60;;;25.83;;
53666;SDS011;39568;51.026;5.468;2024-01-10T02:55:57;35.55;;;17.27;;
53666;SDS011;39568;51.026;5.468;2024-01-10T02:58:23;46.13;;;17.35;;
53666;SDS011;39568;51.026;5.468;2024-01-10T03:00:52;39.03;;;18.67;;
53666;SDS011;39568;51.026;5.468;2024-01-10T03:03:18;21.35;;;11.43;;
53666;SDS011;39568;51.026;5.468;2024-01-10T03:05:44;42.35;;;16.52;;
53666;SDS011;39568;51.026;5.468;2024-01-10T03:08:11;24.30;;;11.10;;
53666;SDS011;39568;51.026;5.468;2024-01-10T03:10:37;24.33;;;11.65;;
53666;SDS011;39568;51.026;5.468;2024-01-10T03:13:04;21.17;;;10.10;;
53666;SDS011;39568;51.026;5.468;2024-01-10T03:15:30;23.77;;;11.05;;
53666;SDS011;39568;51.026;5.468;2024-01-10T03:17:58;18.85;;;9.80;;
53666;SDS011;39568;51.026;5.468;2024-01-10T03:20:24;20.65;;;10.90;;
53666;SDS011;39568;51.026;5.468;2024-01-10T03:22:51;21.92;;;10.00;;
53666;SDS011;39568;51.026;5.468;2024-01-10T03:25:18;29.25;;;13.85;;
53666;SDS011;39568;51.026;5.468;2024-01-10T03:27:44;28.75;;;11.27;;
53666;SDS011;39568;51.026;5.468;2024-01-10T03:30:11;23.73;;;11.43;;
53666;SDS011;39568;51.026;5.468;2024-01-10T03:32:37;19.15;;;10.05;;
53666;SDS011;39568;51.026;5.468;2024-01-10T03:35:06;20.75;;;9.88;;
53666;SDS011;39568;51.026;5.468;2024-01-10T03:37:32;17.23;;;9.65;;
53666;SDS011;39568;51.026;5.468;2024-01-10T03:40:00;22.33;;;9.88;;
53666;SDS011;39568;51.026;5.468;2024-01-10T03:42:26;16.70;;;9.40;;
53666;SDS011;39568;51.026;5.468;2024-01-10T03:44:53;19.73;;;10.82;;
53666;SDS011;39568;51.026;5.468;2024-01-10T03:47:19;20.13;;;10.52;;
53666;SDS011;39568;51.026;5.468;2024-01-10T03:49:46;15.73;;;8.90;;
53666;SDS011;39568;51.026;5.468;2024-01-10T03:52:14;22.15;;;9.77;;
53666;SDS011;39568;51.026;5.468;2024-01-10T03:54:40;21.65;;;9.60;;
53666;SDS011;39568;51.026;5.468;2024-01-10T03:57:07;23.63;;;11.07;;
53666;SDS011;39568;51.026;5.468;2024-01-10T03:59:33;28.13;;;9.85;;
53666;SDS011;39568;51.026;5.468;2024-01-10T04:01:59;28.35;;;10.45;;
53666;SDS011;39568;51.026;5.468;2024-01-10T04:04:27;19.08;;;9.10;;
53666;SDS011;39568;51.026;5.468;2024-01-10T04:06:53;23.05;;;10.48;;
53666;SDS011;39568;51.026;5.468;2024-01-10T04:09:21;22.98;;;9.40;;
53666;SDS011;39568;51.026;5.468;2024-01-10T04:11:47;23.25;;;10.40;;
53666;SDS011;39568;51.026;5.468;2024-01-10T04:14:13;21.35;;;10.38;;
53666;SDS011;39568;51.026;5.468;2024-01-10T04:16:40;23.38;;;10.93;;
53666;SDS011;39568;51.026;5.468;2024-01-10T04:19:06;18.30;;;9.02;;
53666;SDS011;39568;51.026;5.468;2024-01-10T04:21:33;21.55;;;10.20;;
53666;SDS011;39568;51.026;5.468;2024-01-10T04:23:59;19.05;;;8.77;;
53666;SDS011;39568;51.026;5.468;2024-01-10T04:26:27;23.45;;;9.70;;
53666;SDS011;39568;51.026;5.468;2024-01-10T04:28:54;20.70;;;10.13;;
53666;SDS011;39568;51.026;5.468;2024-01-10T04:31:20;19.40;;;9.45;;
53666;SDS011;39568;51.026;5.468;2024-01-10T04:33:47;19.95;;;11.23;;
53666;SDS011;39568;51.026;5.468;2024-01-10T04:36:13;20.02;;;9.70;;
53666;SDS011;39568;51.026;5.468;2024-01-10T04:38:40;22.23;;;9.48;;
53666;SDS011;39568;51.026;5.468;2024-01-10T04:41:06;15.10;;;9.20;;
53666;SDS011;39568;51.026;5.468;2024-01-10T04:43:34;32.53;;;11.00;;
53666;SDS011;39568;51.026;5.468;2024-01-10T04:46:00;23.05;;;10.82;;
53666;SDS011;39568;51.026;5.468;2024-01-10T04:48:27;30.08;;;11.38;;
53666;SDS011;39568;51.026;5.468;2024-01-10T04:50:53;23.80;;;10.30;;
53666;SDS011;39568;51.026;5.468;2024-01-10T04:53:20;23.98;;;9.90;;
53666;SDS011;39568;51.026;5.468;2024-01-10T04:55:46;25.70;;;11.25;;
53666;SDS011;39568;51.026;5.468;2024-01-10T04:58:13;14.52;;;9.90;;
53666;SDS011;39568;51.026;5.468;2024-01-10T05:00:41;24.95;;;8.43;;
53666;SDS011;39568;51.026;5.468;2024-01-10T05:03:07;13.85;;;8.73;;
53666;SDS011;39568;51.026;5.468;2024-01-10T05:05:34;17.77;;;8.93;;
53666;SDS011;39568;51.026;5.468;2024-01-10T05:08:00;18.40;;;8.85;;
53666;SDS011;39568;51.026;5.468;2024-01-10T05:10:27;25.98;;;10.45;;
53666;SDS011;39568;51.026;5.468;2024-01-10T05:12:53;32.90;;;13.50;;
53666;SDS011;39568;51.026;5.468;2024-01-10T05:15:20;30.58;;;14.00;;
53666;SDS011;39568;51.026;5.468;2024-01-10T05:17:48;64.03;;;23.25;;
53666;SDS011;39568;51.026;5.468;2024-01-10T05:20:14;91.93;;;31.08;;
53666;SDS011;39568;51.026;5.468;2024-01-10T05:22:40;76.50;;;28.00;;
53666;SDS011;39568;51.026;5.468;2024-01-10T05:25:07;34.65;;;16.35;;
53666;SDS011;39568;51.026;5.468;2024-01-10T05:27:34;28.05;;;12.57;;
53666;SDS011;39568;51.026;5.468;2024-01-10T05:30:00;34.00;;;13.65;;
53666;SDS011;39568;51.026;5.468;2024-01-10T05:32:26;24.45;;;12.50;;
53666;SDS011;39568;51.026;5.468;2024-01-10T05:34:54;29.75;;;12.45;;
53666;SDS011;39568;51.026;5.468;2024-01-10T05:37:21;25.92;;;11.32;;
53666;SDS011;39568;51.026;5.468;2024-01-10T05:39:48;21.23;;;10.95;;
53666;SDS011;39568;51.026;5.468;2024-01-10T05:42:14;21.70;;;9.75;;
53666;SDS011;39568;51.026;5.468;2024-01-10T05:44:41;27.90;;;11.93;;
53666;SDS011;39568;51.026;5.468;2024-01-10T05:47:07;26.95;;;12.27;;
53666;SDS011;39568;51.026;5.468;2024-01-10T05:49:34;23.95;;;11.00;;
53666;SDS011;39568;51.026;5.468;2024-01-10T05:52:02;16.35;;;8.93;;
53666;SDS011;39568;51.026;5.468;2024-01-10T05:54:28;18.58;;;9.82;;
53666;SDS011;39568;51.026;5.468;2024-01-10T05:56:55;26.27;;;9.63;;
53666;SDS011;39568;51.026;5.468;2024-01-10T05:59:21;19.77;;;9.57;;
53666;SDS011;39568;51.026;5.468;2024-01-10T06:01:48;18.65;;;8.95;;
53666;SDS011;39568;51.026;5.468;2024-01-10T06:04:14;19.10;;;9.77;;
53666;SDS011;39568;51.026;5.468;2024-01-10T06:06:41;14.52;;;8.48;;
53666;SDS011;39568;51.026;5.468;2024-01-10T06:09:08;20.15;;;9.57;;
53666;SDS011;39568;51.026;5.468;2024-01-10T06:11:40;23.83;;;9.30;;
53666;SDS011;39568;51.026;5.468;2024-01-10T06:14:06;18.10;;;9.05;;
53666;SDS011;39568;51.026;5.468;2024-01-10T06:16:33;21.50;;;9.95;;
53666;SDS011;39568;51.026;5.468;2024-01-10T06:18:59;16.58;;;9.65;;
53666;SDS011;39568;51.026;5.468;2024-01-10T06:21:26;20.23;;;7.90;;
53666;SDS011;39568;51.026;5.468;2024-01-10T06:23:52;22.88;;;10.38;;
53666;SDS011;39568;51.026;5.468;2024-01-10T06:26:20;22.00;;;8.25;;
53666;SDS011;39568;51.026;5.468;2024-01-10T06:28:47;19.00;;;9.70;;
53666;SDS011;39568;51.026;5.468;2024-01-10T06:31:13;25.63;;;9.27;;
53666;SDS011;39568;51.026;5.468;2024-01-10T06:33:40;21.02;;;10.23;;
53666;SDS011;39568;51.026;5.468;2024-01-10T06:36:06;17.48;;;7.80;;
53666;SDS011;39568;51.026;5.468;2024-01-10T06:38:33;18.80;;;9.20;;
53666;SDS011;39568;51.026;5.468;2024-01-10T06:41:00;18.30;;;9.27;;
53666;SDS011;39568;51.026;5.468;2024-01-10T06:43:27;16.40;;;9.60;;
53666;SDS011;39568;51.026;5.468;2024-01-10T06:45:55;18.40;;;11.18;;
53666;SDS011;39568;51.026;5.468;2024-01-10T06:48:21;17.85;;;9.23;;
53666;SDS011;39568;51.026;5.468;2024-01-10T06:50:47;42.17;;;19.45;;
53666;SDS011;39568;51.026;5.468;2024-01-10T06:53:14;36.40;;;17.55;;
53666;SDS011;39568;51.026;5.468;2024-01-10T06:55:40;17.70;;;11.55;;
53666;SDS011;39568;51.026;5.468;2024-01-10T06:58:07;23.20;;;11.18;;
53666;SDS011;39568;51.026;5.468;2024-01-10T07:00:34;23.33;;;11.48;;
53666;SDS011;39568;51.026;5.468;2024-01-10T07:03:03;22.58;;;11.52;;
53666;SDS011;39568;51.026;5.468;2024-01-10T07:05:29;22.73;;;10.40;;
53666;SDS011;39568;51.026;5.468;2024-01-10T07:07:57;19.75;;;9.40;;
53666;SDS011;39568;51.026;5.468;2024-01-10T07:10:23;16.55;;;9.57;;
53666;SDS011;39568;51.026;5.468;2024-01-10T07:12:52;23.15;;;11.93;;
53666;SDS011;39568;51.026;5.468;2024-01-10T07:15:19;21.80;;;10.18;;
53666;SDS011;39568;51.026;5.468;2024-01-10T07:17:46;18.23;;;9.73;;
53666;SDS011;39568;51.026;5.468;2024-01-10T07:20:13;22.90;;;10.88;;
53666;SDS011;39568;51.026;5.468;2024-01-10T07:22:39;18.33;;;9.93;;
53666;SDS011;39568;51.026;5.468;2024-01-10T07:25:06;24.63;;;10.98;;
53666;SDS011;39568;51.026;5.468;2024-01-10T07:27:33;26.15;;;9.98;;
53666;SDS011;39568;51.026;5.468;2024-01-10T07:30:03;22.88;;;10.23;;
53666;SDS011;39568;51.026;5.468;2024-01-10T07:32:29;22.20;;;10.18;;
53666;SDS011;39568;51.026;5.468;2024-01-10T07:34:57;21.17;;;10.30;;
53666;SDS011;39568;51.026;5.468;2024-01-10T07:37:24;30.05;;;11.07;;
53666;SDS011;39568;51.026;5.468;2024-01-10T07:39:50;14.57;;;9.23;;
53666;SDS011;39568;51.026;5.468;2024-01-10T07:42:16;25.30;;;11.20;;
53666;SDS011;39568;51.026;5.468;2024-01-10T07:44:43;24.23;;;13.82;;
53666;SDS011;39568;51.026;5.468;2024-01-10T07:47:10;28.83;;;14.48;;
53666;SDS011;39568;51.026;5.468;2024-01-10T07:49:36;25.00;;;13.35;;
53666;SDS011;39568;51.026;5.468;2024-01-10T07:52:05;27.95;;;11.70;;
53666;SDS011;39568;51.026;5.468;2024-01-10T07:54:31;26.02;;;10.55;;
53666;SDS011;39568;51.026;5.468;2024-01-10T07:56:58;20.75;;;10.05;;
53666;SDS011;39568;51.026;5.468;2024-01-10T07:59:24;27.15;;;12.40;;
53666;SDS011;39568;51.026;5.468;2024-01-10T08:01:54;25.67;;;11.98;;
53666;SDS011;39568;51.026;5.468;2024-01-10T08:04:21;25.50;;;12.18;;
53666;SDS011;39568;51.026;5.468;2024-01-10T08:06:48;25.15;;;12.32;;
53666;SDS011;39568;51.026;5.468;2024-01-10T08:09:15;23.58;;;11.05;;
53666;SDS011;39568;51.026;5.468;2024-01-10T08:11:44;34.45;;;13.02;;
53666;SDS011;39568;51.026;5.468;2024-01-10T08:14:10;26.83;;;13.43;;
53666;SDS011;39568;51.026;5.468;2024-01-10T08:16:37;29.00;;;15.30;;
53666;SDS011;39568;51.026;5.468;2024-01-10T08:19:03;31.92;;;15.45;;
53666;SDS011;39568;51.026;5.468;2024-01-10T08:21:29;35.80;;;14.18;;
53666;SDS011;39568;51.026;5.468;2024-01-10T08:23:56;36.35;;;15.40;;
53666;SDS011;39568;51.026;5.468;2024-01-10T08:26:24;44.38;;;19.17;;
53666;SDS011;39568;51.026;5.468;2024-01-10T08:28:50;39.42;;;16.75;;
53666;SDS011;39568;51.026;5.468;2024-01-10T08:31:17;34.08;;;14.43;;
53666;SDS011;39568;51.026;5.468;2024-01-10T08:33:43;21.00;;;12.13;;
53666;SDS011;39568;51.026;5.468;2024-01-10T08:36:10;19.70;;;10.40;;
53666;SDS011;39568;51.026;5.468;2024-01-10T08:38:37;30.50;;;12.45;;
53666;SDS011;39568;51.026;5.468;2024-01-10T08:41:04;24.08;;;12.18;;
53666;SDS011;39568;51.026;5.468;2024-01-10T08:43:32;25.73;;;13.10;;
53666;SDS011;39568;51.026;5.468;2024-01-10T08:45:58;25.90;;;13.20;;
53666;SDS011;39568;51.026;5.468;2024-01-10T08:48:24;18.70;;;11.95;;
53666;SDS011;39568;51.026;5.468;2024-01-10T08:50:51;25.77;;;13.20;;
53666;SDS011;39568;51.026;5.468;2024-01-10T08:53:19;22.00;;;12.85;;
53666;SDS011;39568;51.026;5.468;2024-01-10T08:55:45;24.73;;;14.00;;
53666;SDS011;39568;51.026;5.468;2024-01-10T08:58:12;23.20;;;14.07;;
53666;SDS011;39568;51.026;5.468;2024-01-10T09:00:40;25.02;;;12.52;;
53666;SDS011;39568;51.026;5.468;2024-01-10T09:03:06;22.85;;;12.25;;
53666;SDS011;39568;51.026;5.468;2024-01-10T09:05:34;24.75;;;11.52;;
53666;SDS011;39568;51.026;5.468;2024-01-10T09:08:00;21.77;;;11.32;;
53666;SDS011;39568;51.026;5.468;2024-01-10T09:10:28;20.67;;;12.82;;
53666;SDS011;39568;51.026;5.468;2024-01-10T09:12:54;21.02;;;11.60;;
53666;SDS011;39568;51.026;5.468;2024-01-10T09:15:21;17.92;;;10.93;;
53666;SDS011;39568;51.026;5.468;2024-01-10T09:17:48;25.58;;;14.90;;
53666;SDS011;39568;51.026;5.468;2024-01-10T09:20:17;35.33;;;17.35;;
53666;SDS011;39568;51.026;5.468;2024-01-10T09:22:44;43.20;;;19.25;;
53666;SDS011;39568;51.026;5.468;2024-01-10T09:25:10;25.05;;;12.45;;
53666;SDS011;39568;51.026;5.468;2024-01-10T09:27:38;32.00;;;16.52;;
53666;SDS011;39568;51.026;5.468;2024-01-10T09:30:06;21.02;;;11.15;;
53666;SDS011;39568;51.026;5.468;2024-01-10T09:32:33;24.40;;;11.98;;
53666;SDS011;39568;51.026;5.468;2024-01-10T09:35:01;16.73;;;10.70;;
53666;SDS011;39568;51.026;5.468;2024-01-10T09:37:28;21.20;;;11.95;;
53666;SDS011;39568;51.026;5.468;2024-01-10T09:39:55;19.73;;;11.85;;
53666;SDS011;39568;51.026;5.468;2024-01-10T09:42:21;24.33;;;10.27;;
53666;SDS011;39568;51.026;5.468;2024-01-10T09:44:50;17.05;;;11.13;;
53666;SDS011;39568;51.026;5.468;2024-01-10T09:47:17;19.17;;;10.57;;
53666;SDS011;39568;51.026;5.468;2024-01-10T09:49:45;24.10;;;12.52;;
53666;SDS011;39568;51.026;5.468;2024-01-10T09:52:15;16.25;;;10.05;;
53666;SDS011;39568;51.026;5.468;2024-01-10T09:54:43;21.33;;;9.43;;
53666;SDS011;39568;51.026;5.468;2024-01-10T09:57:11;21.80;;;11.10;;
53666;SDS011;39568;51.026;5.468;2024-01-10T09:59:38;19.50;;;11.02;;
53666;SDS011;39568;51.026;5.468;2024-01-10T10:02:05;28.80;;;10.75;;
53666;SDS011;39568;51.026;5.468;2024-01-10T10:04:31;19.77;;;11.35;;
53666;SDS011;39568;51.026;5.468;2024-01-10T10:06:58;19.13;;;10.32;;
53666;SDS011;39568;51.026;5.468;2024-01-10T10:09:27;16.20;;;9.52;;
53666;SDS011;39568;51.026;5.468;2024-01-10T10:11:54;17.77;;;11.30;;
53666;SDS011;39568;51.026;5.468;2024-01-10T10:14:22;19.33;;;11.75;;
53666;SDS011;39568;51.026;5.468;2024-01-10T10:16:51;20.17;;;10.95;;
53666;SDS011;39568;51.026;5.468;2024-01-10T10:19:22;21.50;;;10.85;;
53666;SDS011;39568;51.026;5.468;2024-01-10T10:21:48;22.60;;;10.48;;
53666;SDS011;39568;51.026;5.468;2024-01-10T10:24:15;18.38;;;11.13;;
53666;SDS011;39568;51.026;5.468;2024-01-10T10:26:43;21.67;;;10.73;;
53666;SDS011;39568;51.026;5.468;2024-01-10T10:29:09;18.00;;;10.80;;
53666;SDS011;39568;51.026;5.468;2024-01-10T10:31:36;21.52;;;10.63;;
53666;SDS011;39568;51.026;5.468;2024-01-10T10:34:02;19.48;;;10.38;;
53666;SDS011;39568;51.026;5.468;2024-01-10T10:36:29;20.90;;;10.27;;
53666;SDS011;39568;51.026;5.468;2024-01-10T10:38:58;17.83;;;10.48;;
53666;SDS011;39568;51.026;5.468;2024-01-10T10:41:25;23.30;;;12.00;;
53666;SDS011;39568;51.026;5.468;2024-01-10T10:43:53;22.95;;;11.43;;
53666;SDS011;39568;51.026;5.468;2024-01-10T10:46:20;26.58;;;11.02;;
53666;SDS011;39568;51.026;5.468;2024-01-10T10:48:48;19.13;;;11.00;;
53666;SDS011;39568;51.026;5.468;2024-01-10T10:51:15;22.77;;;10.48;;
53666;SDS011;39568;51.026;5.468;2024-01-10T10:53:43;21.33;;;10.18;;
53666;SDS011;39568;51.026;5.468;2024-01-10T10:56:11;19.98;;;12.60;;
53666;SDS011;39568;51.026;5.468;2024-01-10T10:58:38;23.92;;;12.30;;
53666;SDS011;39568;51.026;5.468;2024-01-10T11:01:07;19.17;;;10.90;;
53666;SDS011;39568;51.026;5.468;2024-01-10T11:03:34;29.50;;;12.63;;
53666;SDS011;39568;51.026;5.468;2024-01-10T11:06:01;18.90;;;11.02;;
53666;SDS011;39568;51.026;5.468;2024-01-10T11:08:28;19.55;;;11.18;;
53666;SDS011;39568;51.026;5.468;2024-01-10T11:10:55;20.55;;;11.50;;
53666;SDS011;39568;51.026;5.468;2024-01-10T11:13:25;24.52;;;12.43;;
53666;SDS011;39568;51.026;5.468;2024-01-10T11:16:11;27.77;;;11.80;;
53666;SDS011;39568;51.026;5.468;2024-01-10T11:18:48;25.25;;;10.93;;
53666;SDS011;39568;51.026;5.468;2024-01-10T11:21:19;25.48;;;12.20;;
53666;SDS011;39568;51.026;5.468;2024-01-10T11:23:51;25.35;;;11.63;;
53666;SDS011;39568;51.026;5.468;2024-01-10T11:26:18;35.97;;;12.80;;
53666;SDS011;39568;51.026;5.468;2024-01-10T11:28:45;25.83;;;11.73;;
53666;SDS011;39568;51.026;5.468;2024-01-10T11:31:14;19.13;;;11.13;;
53666;SDS011;39568;51.026;5.468;2024-01-10T11:33:41;18.77;;;10.25;;
53666;SDS011;39568;51.026;5.468;2024-01-10T11:36:12;17.00;;;9.80;;
53666;SDS011;39568;51.026;5.468;2024-01-10T11:38:42;22.08;;;11.23;;
53666;SDS011;39568;51.026;5.468;2024-01-10T11:41:10;23.85;;;10.55;;
53666;SDS011;39568;51.026;5.468;2024-01-10T11:43:36;17.52;;;10.48;;
53666;SDS011;39568;51.026;5.468;2024-01-10T11:46:03;20.60;;;10.68;;
53666;SDS011;39568;51.026;5.468;2024-01-10T11:48:32;21.65;;;12.55;;
53666;SDS011;39568;51.026;5.468;2024-01-10T11:50:58;20.02;;;10.40;;
53666;SDS011;39568;51.026;5.468;2024-01-10T11:53:38;23.73;;;11.13;;
53666;SDS011;39568;51.026;5.468;2024-01-10T11:56:08;17.85;;;10.35;;
53666;SDS011;39568;51.026;5.468;2024-01-10T11:58:45;20.13;;;10.90;;
53666;SDS011;39568;51.026;5.468;2024-01-10T12:01:18;21.60;;;10.90;;
53666;SDS011;39568;51.026;5.468;2024-01-10T12:03:46;26.85;;;11.50;;
53666;SDS011;39568;51.026;5.468;2024-01-10T12:06:14;23.05;;;10.18;;
53666;SDS011;39568;51.026;5.468;2024-01-10T12:08:41;21.25;;;11.07;;
53666;SDS011;39568;51.026;5.468;2024-01-10T12:11:07;22.73;;;11.80;;
53666;SDS011;39568;51.026;5.468;2024-01-10T12:13:34;20.42;;;10.90;;
53666;SDS011;39568;51.026;5.468;2024-01-10T12:16:01;29.73;;;12.45;;
53666;SDS011;39568;51.026;5.468;2024-01-10T12:18:28;21.40;;;10.90;;
53666;SDS011;39568;51.026;5.468;2024-01-10T12:20:55;25.48;;;12.10;;
53666;SDS011;39568;51.026;5.468;2024-01-10T12:23:22;25.08;;;12.10;;
53666;SDS011;39568;51.026;5.468;2024-01-10T12:25:48;30.77;;;11.32;;
53666;SDS011;39568;51.026;5.468;2024-01-10T12:28:15;24.98;;;12.63;;
53666;SDS011;39568;51.026;5.468;2024-01-10T12:30:42;26.17;;;12.43;;
53666;SDS011;39568;51.026;5.468;2024-01-10T12:33:09;26.05;;;12.75;;
53666;SDS011;39568;51.026;5.468;2024-01-10T12:35:35;130.70;;;32.63;;
53666;SDS011;39568;51.026;5.468;2024-01-10T12:38:04;77.80;;;25.33;;
53666;SDS011;39568;51.026;5.468;2024-01-10T12:40:31;29.13;;;13.68;;
53666;SDS011;39568;51.026;5.468;2024-01-10T12:43:01;26.73;;;13.88;;
53666;SDS011;39568;51.026;5.468;2024-01-10T12:45:28;53.10;;;25.42;;
53666;SDS011;39568;51.026;5.468;2024-01-10T12:47:54;22.85;;;11.82;;
53666;SDS011;39568;51.026;5.468;2024-01-10T12:50:21;19.67;;;11.60;;
53666;SDS011;39568;51.026;5.468;2024-01-10T12:52:47;26.30;;;13.07;;
53666;SDS011;39568;51.026;5.468;2024-01-10T12:55:15;27.63;;;13.27;;
53666;SDS011;39568;51.026;5.468;2024-01-10T12:57:42;25.70;;;12.82;;
53666;SDS011;39568;51.026;5.468;2024-01-10T13:00:09;26.45;;;12.48;;
53666;SDS011;39568;51.026;5.468;2024-01-10T13:02:36;23.88;;;12.93;;
53666;SDS011;39568;51.026;5.468;2024-01-10T13:05:03;29.80;;;13.45;;
53666;SDS011;39568;51.026;5.468;2024-01-10T13:07:30;24.40;;;13.40;;
53666;SDS011;39568;51.026;5.468;2024-01-10T13:09:59;25.30;;;12.68;;
53666;SDS011;39568;51.026;5.468;2024-01-10T13:12:27;25.02;;;13.15;;
53666;SDS011;39568;51.026;5.468;2024-01-10T13:14:53;27.27;;;12.63;;
53666;SDS011;39568;51.026;5.468;2024-01-10T13:17:21;23.70;;;13.50;;
53666;SDS011;39568;51.026;5.468;2024-01-10T13:19:48;32.40;;;11.98;;
53666;SDS011;39568;51.026;5.468;2024-01-10T13:22:14;22.60;;;12.43;;
53666;SDS011;39568;51.026;5.468;2024-01-10T13:24:44;24.30;;;11.52;;
53666;SDS011;39568;51.026;5.468;2024-01-10T13:27:10;19.73;;;10.98;;
53666;SDS011;39568;51.026;5.468;2024-01-10T13:29:38;27.42;;;12.00;;
53666;SDS011;39568;51.026;5.468;2024-01-10T13:32:06;24.63;;;11.05;;
53666;SDS011;39568;51.026;5.468;2024-01-10T13:34:33;24.48;;;11.60;;
53666;SDS011;39568;51.026;5.468;2024-01-10T13:36:59;22.35;;;11.60;;
53666;SDS011;39568;51.026;5.468;2024-01-10T13:39:27;22.98;;;11.93;;
53666;SDS011;39568;51.026;5.468;2024-01-10T13:41:53;29.13;;;12.25;;
53666;SDS011;39568;51.026;5.468;2024-01-10T13:44:20;23.08;;;11.98;;
53666;SDS011;39568;51.026;5.468;2024-01-10T13:46:48;22.55;;;11.98;;
53666;SDS011;39568;51.026;5.468;2024-01-10T13:49:16;23.85;;;11.45;;
53666;SDS011;39568;51.026;5.468;2024-01-10T13:51:43;24.98;;;11.18;;
53666;SDS011;39568;51.026;5.468;2024-01-10T13:54:09;29.38;;;12.18;;
53666;SDS011;39568;51.026;5.468;2024-01-10T13:56:36;26.95;;;9.88;;
53666;SDS011;39568;51.026;5.468;2024-01-10T13:59:04;19.38;;;11.98;;
53666;SDS011;39568;51.026;5.468;2024-01-10T14:01:30;26.27;;;11.20;;
53666;SDS011;39568;51.026;5.468;2024-01-10T14:03:58;21.77;;;11.35;;
53666;SDS011;39568;51.026;5.468;2024-01-10T14:06:25;21.85;;;12.45;;
53666;SDS011;39568;51.026;5.468;2024-01-10T14:08:52;28.60;;;11.98;;
53666;SDS011;39568;51.026;5.468;2024-01-10T14:11:18;23.27;;;10.98;;
53666;SDS011;39568;51.026;5.468;2024-01-10T14:13:45;21.13;;;10.90;;
53666;SDS011;39568;51.026;5.468;2024-01-10T14:16:11;24.05;;;11.52;;
53666;SDS011;39568;51.026;5.468;2024-01-10T14:18:38;16.67;;;10.68;;
53666;SDS011;39568;51.026;5.468;2024-01-10T14:21:06;20.65;;;10.93;;
53666;SDS011;39568;51.026;5.468;2024-01-10T14:23:32;17.85;;;10.43;;
53666;SDS011;39568;51.026;5.468;2024-01-10T14:25:59;19.02;;;11.20;;